createdAt,value
2022-09-02T00:01:45.432Z,97295.88
2022-09-02T00:04:19.501Z,97287.59
2022-09-02T00:06:49.120Z,97288.97
2022-09-02T00:09:19.432Z,97284.06
2022-09-02T00:11:50.374Z,97281.94
2022-09-02T00:14:23.510Z,97283.50
2022-09-02T00:16:53.624Z,97269.25
2022-09-02T00:19:26.867Z,97279.34
2022-09-02T00:21:56.099Z,97273.03
2022-09-02T00:24:25.265Z,97265.38
2022-09-02T00:26:55.329Z,97254.47
2022-09-02T00:29:26.365Z,97265.31
2022-09-02T00:31:53.906Z,97244.81
2022-09-02T00:34:21.391Z,97248.69
2022-09-02T00:36:49.042Z,97248.25
2022-09-02T00:39:16.570Z,97251.69
2022-09-02T00:41:45.051Z,97248.19
2022-09-02T00:44:16.468Z,97263.88
2022-09-02T00:46:44.165Z,97261.31
2022-09-02T00:49:25.944Z,97259.47
2022-09-02T00:51:56.497Z,97258.25
2022-09-02T00:54:26.683Z,97258.75
2022-09-02T00:56:56.493Z,97255.16
2022-09-02T00:59:55.234Z,97252.66
2022-09-02T01:02:25.539Z,97241.06
2022-09-02T01:04:57.075Z,97252.00
2022-09-02T01:07:27.523Z,97257.03
2022-09-02T01:09:56.971Z,97262.53
2022-09-02T01:12:28.056Z,97256.53
2022-09-02T01:14:55.657Z,97254.44
2022-09-02T01:17:23.206Z,97257.06
2022-09-02T01:19:55.272Z,97261.66
2022-09-02T01:22:26.895Z,97256.41
2022-09-02T01:24:58.104Z,97263.06
2022-09-02T01:27:26.194Z,97251.03
2022-09-02T01:29:56.228Z,97259.88
2022-09-02T01:32:25.556Z,97259.00
2022-09-02T01:34:54.698Z,97246.66
2022-09-02T01:37:22.730Z,97239.31
2022-09-02T01:39:52.534Z,97237.34
2022-09-02T01:42:21.401Z,97249.59
2022-09-02T01:44:49.333Z,97240.50
2022-09-02T01:47:23.767Z,97251.59
2022-09-02T01:49:52.015Z,97236.78
2022-09-02T01:52:22.986Z,97244.13
2022-09-02T01:54:51.524Z,97256.84
2022-09-02T01:57:19.349Z,97255.44
2022-09-02T01:59:47.138Z,97248.84
2022-09-02T02:02:19.495Z,97244.69
2022-09-02T02:04:48.328Z,97245.97
2022-09-02T02:07:18.959Z,97244.47
2022-09-02T02:09:47.232Z,97241.38
2022-09-02T02:12:16.779Z,97236.13
2022-09-02T02:14:44.352Z,97228.25
2022-09-02T02:17:11.963Z,97229.66
2022-09-02T02:19:40.809Z,97238.34
2022-09-02T02:22:09.360Z,97235.91
2022-09-02T02:24:37.359Z,97227.81
2022-09-02T02:27:05.533Z,97233.28
2022-09-02T02:29:33.073Z,97231.44
2022-09-02T02:32:01.302Z,97225.81
2022-09-02T02:34:28.956Z,97217.63
2022-09-02T02:36:57.589Z,97218.91
2022-09-02T02:39:25.100Z,97243.66
2022-09-02T02:41:52.634Z,97254.41
2022-09-02T02:44:20.407Z,97280.56
2022-09-02T02:46:47.998Z,97278.69
2022-09-02T02:49:16.676Z,97276.59
2022-09-02T02:51:44.895Z,97262.53
2022-09-02T02:54:14.669Z,97264.25
2022-09-02T02:56:42.428Z,97275.53
2022-09-02T02:59:09.967Z,97254.13
2022-09-02T03:01:38.460Z,97244.03
2022-09-02T03:04:06.419Z,97217.50
2022-09-02T03:06:34.566Z,97184.91
2022-09-02T03:09:04.045Z,97179.91
2022-09-02T03:11:32.329Z,97192.63
2022-09-02T03:13:59.990Z,97169.72
2022-09-02T03:16:27.831Z,97173.97
2022-09-02T03:18:56.183Z,97169.66
2022-09-02T03:21:23.991Z,97170.09
2022-09-02T03:23:51.458Z,97147.22
2022-09-02T03:26:25.365Z,97130.09
2022-09-02T03:28:57.205Z,97136.97
2022-09-02T03:31:27.110Z,97135.88
2022-09-02T03:33:55.910Z,97154.13
2022-09-02T03:36:33.933Z,97139.56
2022-09-02T03:39:02.524Z,97150.84
2022-09-02T03:41:30.376Z,97151.53
2022-09-02T03:43:59.493Z,97132.53
2022-09-02T03:46:29.776Z,97136.34
2022-09-02T03:48:57.828Z,97120.44
2022-09-02T03:51:26.044Z,97122.69
2022-09-02T03:53:55.273Z,97126.16
2022-09-02T03:56:24.807Z,97136.25
2022-09-02T03:58:53.125Z,97136.47
2022-09-02T04:01:29.080Z,97128.47
2022-09-02T04:04:06.014Z,97138.22
2022-09-02T04:06:35.178Z,97131.31
2022-09-02T04:09:05.229Z,97122.34
2022-09-02T04:11:34.143Z,97130.22
2022-09-02T04:14:01.766Z,97128.91
2022-09-02T04:16:30.651Z,97128.03
2022-09-02T04:19:04.820Z,97125.22
2022-09-02T04:21:36.036Z,97111.81
2022-09-02T04:24:05.881Z,97106.56
2022-09-02T04:26:33.919Z,97112.38
2022-09-02T04:29:01.389Z,97099.09
2022-09-02T04:31:31.755Z,97086.81
2022-09-02T04:34:00.778Z,97094.47
2022-09-02T04:36:30.682Z,97078.34
2022-09-02T04:39:02.520Z,97075.13
2022-09-02T04:41:35.790Z,97072.22
2022-09-02T04:44:07.896Z,97071.50
2022-09-02T04:46:39.792Z,97062.75
2022-09-02T04:49:11.876Z,97059.25
2022-09-02T04:51:41.753Z,97056.28
2022-09-02T04:54:11.076Z,97055.28
2022-09-02T04:56:41.853Z,97061.06
2022-09-02T04:59:10.394Z,97057.66
2022-09-02T05:01:43.371Z,97061.47
2022-09-02T05:04:17.970Z,97061.31
2022-09-02T05:06:49.614Z,97047.31
2022-09-02T05:09:20.082Z,97053.75
2022-09-02T05:11:57.905Z,97057.31
2022-09-02T05:14:29.652Z,97041.59
2022-09-02T05:17:07.266Z,97035.91
2022-09-02T05:19:37.711Z,97019.38
2022-09-02T05:22:05.544Z,97041.47
2022-09-02T05:24:37.529Z,97020.00
2022-09-02T05:27:09.417Z,97021.66
2022-09-02T05:29:37.519Z,97007.81
2022-09-02T05:32:05.622Z,97009.09
2022-09-02T05:34:33.750Z,97007.66
2022-09-02T05:37:03.999Z,97011.00
2022-09-02T05:39:33.102Z,97016.97
2022-09-02T05:42:02.019Z,97016.84
2022-09-02T05:44:31.585Z,97037.19
2022-09-02T05:47:00.386Z,97051.66
2022-09-02T05:49:28.792Z,96990.31
2022-09-02T05:52:10.524Z,97006.03
2022-09-02T05:54:41.487Z,97009.09
2022-09-02T05:57:16.542Z,97032.75
2022-09-02T05:59:58.007Z,96998.25
2022-09-02T06:02:45.799Z,97003.59
2022-09-02T06:05:27.681Z,97006.50
2022-09-02T06:08:07.453Z,96993.81
2022-09-02T06:10:43.509Z,97010.97
2022-09-02T06:13:16.123Z,96972.19
2022-09-02T06:15:44.638Z,96980.28
2022-09-02T06:18:14.401Z,96964.78
2022-09-02T06:20:47.770Z,96961.91
2022-09-02T06:23:17.653Z,96956.22
2022-09-02T06:25:48.177Z,96960.38
2022-09-02T06:28:16.556Z,96944.88
2022-09-02T06:30:48.792Z,96959.06
2022-09-02T06:33:21.049Z,96923.44
2022-09-02T06:35:49.755Z,96932.19
2022-09-02T06:38:20.719Z,96928.97
2022-09-02T06:40:51.480Z,96929.38
2022-09-02T06:43:24.520Z,96914.69
2022-09-02T06:46:21.898Z,96924.63
2022-09-02T06:48:52.451Z,96918.31
2022-09-02T06:51:26.773Z,96926.59
2022-09-02T06:53:55.530Z,96910.78
2022-09-02T06:56:26.920Z,96907.81
2022-09-02T06:58:54.942Z,96894.81
2022-09-02T07:01:35.825Z,96888.38
2022-09-02T07:04:23.593Z,96898.53
2022-09-02T07:06:54.970Z,96902.16
2022-09-02T07:09:31.623Z,96883.16
2022-09-02T07:12:06.405Z,96881.00
2022-09-02T07:14:41.289Z,96879.19
2022-09-02T07:17:12.580Z,96884.88
2022-09-02T07:19:40.147Z,96859.00
2022-09-02T07:22:08.183Z,96859.56
2022-09-02T07:24:41.921Z,96854.47
2022-09-02T07:27:11.508Z,96857.59
2022-09-02T07:29:41.586Z,96846.03
2022-09-02T07:32:11.541Z,96825.84
2022-09-02T07:34:39.202Z,96833.09
2022-09-02T07:37:10.615Z,96829.19
2022-09-02T07:39:40.330Z,96828.97
2022-09-02T07:42:10.523Z,96817.59
2022-09-02T07:44:38.277Z,96812.25
2022-09-02T07:47:07.811Z,96807.44
2022-09-02T07:52:28.596Z,96795.84
2022-09-02T07:54:56.704Z,96799.78
2022-09-02T07:57:25.710Z,96789.25
2022-09-02T07:59:53.416Z,96786.97
2022-09-02T08:02:21.020Z,96792.78
2022-09-02T08:04:48.687Z,96788.72
2022-09-02T08:07:19.227Z,96796.06
2022-09-02T08:09:46.729Z,96783.84
2022-09-02T08:12:15.175Z,96798.34
2022-09-02T08:14:44.216Z,96811.28
2022-09-02T08:17:11.823Z,96823.88
2022-09-02T08:19:39.320Z,96792.31
2022-09-02T08:22:07.191Z,96785.75
2022-09-02T08:24:34.724Z,96790.81
2022-09-02T08:27:02.453Z,96800.75
2022-09-02T08:29:29.936Z,96783.16
2022-09-02T08:31:57.536Z,96774.28
2022-09-02T08:34:25.004Z,96776.94
2022-09-02T08:36:56.195Z,96781.41
2022-09-02T08:39:25.091Z,96779.72
2022-09-02T08:41:52.676Z,96770.09
2022-09-02T08:44:24.789Z,96773.34
2022-09-02T08:46:56.825Z,96765.06
2022-09-02T08:49:36.103Z,96760.63
2022-09-02T08:52:05.824Z,96760.03
2022-09-02T08:54:46.544Z,96748.66
2022-09-02T08:57:14.194Z,96736.53
2022-09-02T08:59:43.992Z,96745.16
2022-09-02T09:02:35.920Z,96761.34
2022-09-02T09:05:26.652Z,96751.66
2022-09-02T09:08:14.029Z,96748.06
2022-09-02T09:11:19.674Z,96744.16
2022-09-02T09:14:05.421Z,96754.44
2022-09-02T09:16:48.915Z,96737.38
2022-09-02T09:19:28.872Z,96745.41
2022-09-02T09:22:00.897Z,96751.22
2022-09-02T09:24:38.547Z,96752.88
2022-09-02T09:27:21.324Z,96750.91
2022-09-02T09:29:50.310Z,96758.63
2022-09-02T09:32:46.816Z,96752.88
2022-09-02T09:35:16.683Z,96737.22
2022-09-02T09:37:48.221Z,96722.16
2022-09-02T09:40:26.008Z,96723.94
2022-09-02T09:43:06.452Z,96736.75
2022-09-02T09:45:48.363Z,96789.13
2022-09-02T09:48:31.859Z,96880.69
2022-09-02T09:50:59.258Z,96949.28
2022-09-02T09:53:27.958Z,96911.25
2022-09-02T09:55:58.189Z,96878.44
2022-09-02T09:58:49.638Z,96853.38
2022-09-02T10:01:31.864Z,96862.13
2022-09-02T10:04:45.978Z,96851.50
2022-09-02T10:07:14.222Z,96856.06
2022-09-02T10:09:42.338Z,96861.81
2022-09-02T10:12:13.382Z,96833.47
2022-09-02T10:14:45.328Z,96820.97
2022-09-02T10:17:42.371Z,96820.34
2022-09-02T10:20:48.258Z,96816.84
2022-09-02T10:23:45.312Z,96824.75
2022-09-02T10:26:20.849Z,96818.47
2022-09-02T10:28:58.843Z,96819.03
2022-09-02T10:31:32.811Z,96810.69
2022-09-02T10:34:31.308Z,96805.63
2022-09-02T10:37:31.064Z,96806.69
2022-09-02T10:40:11.187Z,96807.78
2022-09-02T10:43:07.226Z,96805.94
2022-09-02T10:45:51.140Z,96810.53
2022-09-02T10:48:40.755Z,96806.38
2022-09-02T10:51:27.437Z,96810.25
2022-09-02T10:54:33.700Z,96814.19
2022-09-02T10:57:17.245Z,96808.69
2022-09-02T10:59:55.399Z,96820.19
2022-09-02T11:02:27.656Z,96826.56
2022-09-02T11:05:35.262Z,96840.72
2022-09-02T11:08:31.451Z,96844.53
2022-09-02T11:11:05.068Z,96835.41
2022-09-02T11:13:51.076Z,96857.78
2022-09-02T11:16:25.495Z,96861.97
2022-09-02T11:19:09.815Z,96875.56
2022-09-02T11:21:43.371Z,96892.16
2022-09-02T11:24:31.252Z,96893.91
2022-09-02T11:27:25.978Z,96895.16
2022-09-02T11:30:06.548Z,96885.56
2022-09-02T11:33:07.935Z,96890.91
2022-09-02T11:35:39.196Z,96894.16
2022-09-02T11:38:15.788Z,96905.28
2022-09-02T11:44:41.863Z,96925.50
2022-09-02T11:47:25.969Z,96921.91
2022-09-02T11:50:16.655Z,96914.19
2022-09-02T11:52:51.225Z,96917.78
2022-09-02T11:55:33.284Z,96934.75
2022-09-02T11:58:02.038Z,96942.25
2022-09-02T12:00:37.210Z,96956.13
2022-09-02T12:03:11.985Z,96950.81
2022-09-02T12:05:52.312Z,96947.75
2022-09-02T12:08:29.079Z,96954.50
2022-09-02T12:11:00.361Z,96956.94
2022-09-02T12:13:43.752Z,96953.03
2022-09-02T12:16:17.044Z,96955.75
2022-09-02T12:19:08.757Z,96957.84
2022-09-02T12:21:57.520Z,96966.53
2022-09-02T12:24:26.394Z,96954.41
2022-09-02T12:26:53.908Z,96944.84
2022-09-02T12:29:25.174Z,96962.25
2022-09-02T12:31:55.912Z,96952.16
2022-09-02T12:34:26.710Z,96963.34
2022-09-02T12:36:54.435Z,96956.53
2022-09-02T12:39:25.058Z,96971.94
2022-09-02T12:42:08.167Z,96963.94
2022-09-02T12:45:08.633Z,96976.06
2022-09-02T12:48:01.653Z,96979.63
2022-09-02T12:50:44.676Z,96981.38
2022-09-02T12:53:30.454Z,96971.56
2022-09-02T12:56:04.521Z,96970.97
2022-09-02T12:59:02.351Z,96980.88
2022-09-02T13:01:51.755Z,96969.00
2022-09-02T13:04:43.302Z,96983.13
2022-09-02T13:07:41.732Z,96981.09
2022-09-02T13:10:36.900Z,96992.63
2022-09-02T13:13:36.708Z,96989.34
2022-09-02T13:16:18.403Z,96991.50
2022-09-02T13:19:17.297Z,96999.94
2022-09-02T13:21:50.704Z,96986.25
2022-09-02T13:24:36.611Z,96994.13
2022-09-02T13:27:42.616Z,97001.47
2022-09-02T13:30:32.116Z,97005.53
2022-09-02T13:33:08.457Z,97003.94
2022-09-02T13:35:41.239Z,97003.16
2022-09-02T13:38:13.402Z,97007.94
2022-09-02T13:40:46.170Z,97006.91
2022-09-02T13:43:13.903Z,97002.88
2022-09-02T13:45:43.207Z,97012.38
2022-09-02T13:48:19.373Z,96999.06
2022-09-02T13:50:49.750Z,97001.09
2022-09-02T13:53:59.037Z,96995.88
2022-09-02T13:56:25.551Z,97003.41
2022-09-02T13:58:57.239Z,97005.81
2022-09-02T14:01:29.475Z,97003.78
2022-09-02T14:03:59.875Z,97014.13
2022-09-02T14:06:33.533Z,97006.38
2022-09-02T14:09:05.232Z,97012.13
2022-09-02T14:11:43.031Z,97004.38
2022-09-02T14:14:20.411Z,97016.88
2022-09-02T14:16:48.333Z,97007.69
2022-09-02T14:19:16.657Z,97012.25
2022-09-02T14:21:52.811Z,97025.16
2022-09-02T14:24:26.306Z,96999.84
2022-09-02T14:26:56.578Z,97021.34
2022-09-02T14:29:25.275Z,97031.34
2022-09-02T14:32:15.888Z,97032.25
2022-09-02T14:34:47.925Z,97041.41
2022-09-02T14:37:33.145Z,97042.28
2022-09-02T14:40:00.796Z,97022.44
2022-09-02T14:42:29.558Z,97021.88
2022-09-02T14:44:59.715Z,97033.22
2022-09-02T14:47:28.571Z,97030.38
2022-09-02T14:49:57.540Z,97037.16
2022-09-02T14:52:27.028Z,97038.88
2022-09-02T14:54:56.895Z,97055.75
2022-09-02T14:57:35.967Z,97054.31
2022-09-02T15:00:11.553Z,97063.78
2022-09-02T15:02:43.145Z,97059.72
2022-09-02T15:05:14.778Z,97063.59
2022-09-02T15:07:42.951Z,97042.81
2022-09-02T15:10:10.661Z,97051.59
2022-09-02T15:12:56.291Z,97065.66
2022-09-02T15:15:24.933Z,97060.84
2022-09-02T15:17:52.430Z,97060.41
2022-09-02T15:20:21.920Z,97060.13
2022-09-02T15:22:50.813Z,97063.84
2022-09-02T15:25:18.471Z,97076.16
2022-09-02T15:27:46.034Z,97071.19
2022-09-02T15:30:13.810Z,97076.50
2022-09-02T15:32:41.440Z,97060.66
2022-09-02T15:35:09.909Z,97075.72
2022-09-02T15:37:38.442Z,97070.13
2022-09-02T15:40:08.433Z,97066.06
2022-09-02T15:42:39.617Z,97070.91
2022-09-02T15:45:11.245Z,97074.44
2022-09-02T15:47:38.931Z,97066.88
2022-09-02T15:50:06.863Z,97070.56
2022-09-02T15:52:35.458Z,97067.16
2022-09-02T15:55:04.270Z,97077.97
2022-09-02T15:57:31.716Z,97072.34
2022-09-02T16:00:00.313Z,97073.88
2022-09-02T16:02:27.881Z,97082.66
2022-09-02T16:04:56.551Z,97074.75
2022-09-02T16:07:24.516Z,97077.19
2022-09-02T16:09:52.059Z,97080.44
2022-09-02T16:12:19.553Z,97073.59
2022-09-02T16:14:51.318Z,97080.84
2022-09-02T16:17:18.913Z,97076.97
2022-09-02T16:19:46.366Z,97075.91
2022-09-02T16:22:13.958Z,97070.41
2022-09-02T16:24:41.542Z,97075.53
2022-09-02T16:27:10.275Z,97076.09
2022-09-02T16:29:39.797Z,97076.25
2022-09-02T16:32:24.484Z,97074.63
2022-09-02T16:34:56.179Z,97075.69
2022-09-02T16:37:23.724Z,97075.59
2022-09-02T16:39:51.841Z,97077.03
2022-09-02T16:42:19.642Z,97082.34
2022-09-02T16:44:52.320Z,97083.28
2022-09-02T16:47:20.108Z,97086.28
2022-09-02T16:49:48.158Z,97090.44
2022-09-02T16:52:15.943Z,97083.69
2022-09-02T16:54:44.215Z,97095.41
2022-09-02T16:57:12.101Z,97095.41
2022-09-02T16:59:39.651Z,97106.53
2022-09-02T17:02:07.413Z,97096.94
2022-09-02T17:04:34.989Z,97099.56
2022-09-02T17:07:02.591Z,97103.28
2022-09-02T17:09:30.139Z,97119.56
2022-09-02T17:11:57.764Z,97113.75
2022-09-02T17:14:25.585Z,97133.38
2022-09-02T17:16:54.689Z,97140.88
2022-09-02T17:19:22.813Z,97140.28
2022-09-02T17:21:54.763Z,97148.91
2022-09-02T17:24:24.968Z,97138.13
2022-09-02T17:26:56.459Z,97148.47
2022-09-02T17:32:19.012Z,97146.06
2022-09-02T17:34:46.916Z,97140.88
2022-09-02T17:37:14.475Z,97126.50
2022-09-02T17:39:42.156Z,97132.66
2022-09-02T17:42:09.751Z,97150.28
2022-09-02T17:44:39.865Z,97158.28
2022-09-02T17:47:16.190Z,97166.06
2022-09-02T17:49:46.476Z,97157.88
2022-09-02T17:52:17.238Z,97163.75
2022-09-02T17:54:47.010Z,97165.75
2022-09-02T17:57:17.775Z,97169.25
2022-09-02T18:00:03.928Z,97169.25
2022-09-02T18:02:36.542Z,97184.84
2022-09-02T18:05:37.366Z,97178.53
2022-09-02T18:08:23.486Z,97173.47
2022-09-02T18:10:57.755Z,97177.88
2022-09-02T18:13:40.379Z,97176.66
2022-09-02T18:16:26.999Z,97181.09
2022-09-02T18:19:19.770Z,97183.47
2022-09-02T18:22:08.798Z,97182.41
2022-09-02T18:25:00.608Z,97183.00
2022-09-02T18:27:50.720Z,97185.06
2022-09-02T18:30:40.021Z,97188.56
2022-09-02T18:33:10.482Z,97191.69
2022-09-02T18:35:47.575Z,97200.91
2022-09-02T18:38:28.478Z,97202.38
2022-09-02T18:41:13.806Z,97199.75
2022-09-02T18:44:09.252Z,97198.66
2022-09-02T18:46:52.703Z,97210.03
2022-09-02T18:49:24.483Z,97211.66
2022-09-02T18:51:57.455Z,97227.88
2022-09-02T18:54:39.947Z,97219.31
2022-09-02T18:57:09.414Z,97216.56
2022-09-02T19:00:03.401Z,97217.94
2022-09-02T19:02:56.161Z,97208.91
2022-09-02T19:05:27.237Z,97223.19
2022-09-02T19:08:22.217Z,97217.50
2022-09-02T19:11:01.259Z,97215.72
2022-09-02T19:13:57.864Z,97214.47
2022-09-02T19:16:38.508Z,97216.44
2022-09-02T19:19:10.715Z,97231.66
2022-09-02T19:21:47.476Z,97214.19
2022-09-02T19:24:42.974Z,97230.28
2022-09-02T19:27:14.002Z,97231.66
2022-09-02T19:29:46.019Z,97227.38
2022-09-02T19:32:15.474Z,97226.16
2022-09-02T19:34:45.710Z,97233.03
2022-09-02T19:37:14.647Z,97228.16
2022-09-02T19:39:42.879Z,97218.22
2022-09-02T19:42:10.452Z,97211.78
2022-09-02T19:44:39.182Z,97222.19
2022-09-02T19:49:55.168Z,97228.03
2022-09-02T19:52:22.701Z,97219.72
2022-09-02T19:54:50.182Z,97235.31
2022-09-02T19:57:17.730Z,97238.53
2022-09-02T19:59:47.005Z,97241.28
2022-09-02T20:02:15.556Z,97245.13
2022-09-02T20:04:44.170Z,97232.41
2022-09-02T20:07:12.080Z,97242.38
2022-09-02T20:09:41.394Z,97241.63
2022-09-02T20:12:09.621Z,97244.66
2022-09-02T20:14:37.160Z,97241.72
2022-09-02T20:17:06.399Z,97243.59
2022-09-02T20:19:33.954Z,97236.28
2022-09-02T20:22:02.879Z,97227.41
2022-09-02T20:24:32.646Z,97235.66
2022-09-02T20:27:15.670Z,97242.81
2022-09-02T20:30:01.318Z,97239.88
2022-09-02T20:32:59.903Z,97247.22
2022-09-02T20:36:03.442Z,97242.84
2022-09-02T20:39:02.879Z,97247.41
2022-09-02T20:41:38.522Z,97232.72
2022-09-02T20:44:46.648Z,97243.28
2022-09-02T20:47:28.791Z,97248.03
2022-09-02T20:49:59.428Z,97249.38
2022-09-02T20:52:45.034Z,97259.34
2022-09-02T20:55:22.135Z,97264.22
2022-09-02T20:58:16.690Z,97253.25
2022-09-02T21:01:09.768Z,97271.38
2022-09-02T21:03:52.031Z,97275.41
2022-09-02T21:06:24.138Z,97269.53
2022-09-02T21:09:01.023Z,97281.31
2022-09-02T21:11:39.174Z,97280.06
2022-09-02T21:14:14.394Z,97283.00
2022-09-02T21:16:59.900Z,97288.03
2022-09-02T21:19:50.685Z,97277.78
2022-09-02T21:22:31.000Z,97288.94
2022-09-02T21:25:05.033Z,97292.13
2022-09-02T21:27:45.526Z,97291.22
2022-09-02T21:30:22.875Z,97310.31
2022-09-02T21:32:55.255Z,97301.41
2022-09-02T21:35:37.703Z,97304.53
2022-09-02T21:38:11.972Z,97308.03
2022-09-02T21:40:48.294Z,97300.25
2022-09-02T21:43:35.229Z,97298.56
2022-09-02T21:46:32.560Z,97297.66
2022-09-02T21:49:26.477Z,97292.41
2022-09-02T21:52:27.743Z,97297.50
2022-09-02T21:54:55.132Z,97286.88
2022-09-02T21:57:27.116Z,97296.63
2022-09-02T22:00:06.657Z,97299.72
2022-09-02T22:02:55.160Z,97317.25
2022-09-02T22:05:41.447Z,97322.31
2022-09-02T22:08:48.598Z,97323.66
2022-09-02T22:11:18.655Z,97326.41
2022-09-02T22:13:46.117Z,97335.19
2022-09-02T22:16:32.787Z,97337.63
2022-09-02T22:19:10.980Z,97336.50
2022-09-02T22:21:48.797Z,97319.28
2022-09-02T22:24:22.572Z,97330.06
2022-09-02T22:26:54.709Z,97337.69
2022-09-02T22:29:37.806Z,97336.41
2022-09-02T22:32:08.582Z,97338.88
2022-09-02T22:34:42.842Z,97351.63
2022-09-02T22:37:19.044Z,97332.97
2022-09-02T22:39:50.916Z,97336.66
2022-09-02T22:42:40.863Z,97335.78
2022-09-02T22:45:37.202Z,97340.31
2022-09-02T22:48:26.439Z,97340.13
2022-09-02T22:51:19.322Z,97336.09
2022-09-02T22:53:48.298Z,97324.63
2022-09-02T22:56:30.973Z,97341.63
2022-09-02T22:59:04.474Z,97343.22
2022-09-02T23:01:39.850Z,97350.72
2022-09-02T23:04:30.160Z,97351.75
2022-09-02T23:07:05.536Z,97354.03
2022-09-02T23:09:38.091Z,97366.97
2022-09-02T23:12:34.432Z,97362.03
2022-09-02T23:15:29.648Z,97366.53
2022-09-02T23:18:18.416Z,97365.78
2022-09-02T23:21:07.559Z,97364.03
2022-09-02T23:23:40.510Z,97365.69
2022-09-02T23:26:10.607Z,97371.94
2022-09-02T23:29:05.696Z,97378.19
2022-09-02T23:31:53.304Z,97369.53
2022-09-02T23:34:45.709Z,97375.88
2022-09-02T23:37:37.376Z,97376.22
2022-09-02T23:40:21.281Z,97384.44
2022-09-02T23:42:50.110Z,97388.91
2022-09-02T23:45:22.337Z,97396.56
2022-09-02T23:48:09.368Z,97395.00
2022-09-02T23:50:51.822Z,97399.66
2022-09-02T23:53:22.624Z,97394.03
2022-09-02T23:56:09.794Z,97388.88
2022-09-02T23:58:41.480Z,97392.91
